createdAt,value
2023-03-16T00:00:46.011Z,101518.97
2023-03-16T00:03:19.462Z,101516.94
2023-03-16T00:05:50.604Z,101515.75
2023-03-16T00:08:18.342Z,101516.66
2023-03-16T00:10:46.951Z,101517.41
2023-03-16T00:13:17.783Z,101518.44
2023-03-16T00:16:04.767Z,101518.31
2023-03-16T00:18:39.181Z,101514.84
2023-03-16T00:21:06.417Z,101524.19
2023-03-16T00:23:35.718Z,101520.63
2023-03-16T00:26:05.906Z,101522.16
2023-03-16T00:28:35.217Z,101513.72
2023-03-16T00:31:02.838Z,101524.56
2023-03-16T00:33:29.614Z,101526.13
2023-03-16T00:36:02.474Z,101526.72
2023-03-16T00:38:34.844Z,101532.59
2023-03-16T00:41:04.120Z,101529.91
2023-03-16T00:43:31.639Z,101529.13
2023-03-16T00:46:06.815Z,101529.63
2023-03-16T00:48:34.634Z,101531.16
2023-03-16T00:51:06.606Z,101528.22
2023-03-16T00:53:33.991Z,101528.97
2023-03-16T00:56:04.261Z,101528.72
2023-03-16T00:58:35.785Z,101533.94
2023-03-16T01:01:07.325Z,101526.88
2023-03-16T01:03:34.958Z,101529.59
2023-03-16T01:06:11.639Z,101532.00
2023-03-16T01:08:39.541Z,101528.41
2023-03-16T01:11:08.648Z,101530.72
2023-03-16T01:13:35.062Z,101529.56
2023-03-16T01:16:01.496Z,101532.00
2023-03-16T01:18:28.571Z,101525.22
2023-03-16T01:20:55.024Z,101522.53
2023-03-16T01:23:21.885Z,101523.28
2023-03-16T01:25:53.047Z,101518.19
2023-03-16T01:28:24.661Z,101516.22
2023-03-16T01:30:55.527Z,101514.56
2023-03-16T01:33:22.282Z,101511.75
2023-03-16T01:36:03.012Z,101511.75
2023-03-16T01:38:29.763Z,101520.19
2023-03-16T01:40:56.458Z,101514.94
2023-03-16T01:43:25.185Z,101507.16
2023-03-16T01:46:06.780Z,101506.25
2023-03-16T01:48:50.145Z,101514.69
2023-03-16T01:51:22.427Z,101510.47
2023-03-16T01:53:52.967Z,101514.06
2023-03-16T01:56:25.222Z,101509.06
2023-03-16T01:58:53.680Z,101514.19
2023-03-16T02:01:20.228Z,101507.41
2023-03-16T02:03:46.705Z,101513.53
2023-03-16T02:06:18.606Z,101504.09
2023-03-16T02:08:45.476Z,101508.19
2023-03-16T02:11:12.850Z,101499.63
2023-03-16T02:13:39.259Z,101500.38
2023-03-16T02:16:07.763Z,101499.22
2023-03-16T02:18:34.640Z,101495.16
2023-03-16T02:21:33.147Z,101493.22
2023-03-16T02:24:02.326Z,101496.38
2023-03-16T02:26:47.637Z,101492.81
2023-03-16T02:29:39.325Z,101496.00
2023-03-16T02:32:06.161Z,101496.50
2023-03-16T02:34:32.808Z,101499.94
2023-03-16T02:36:59.729Z,101500.06
2023-03-16T02:39:26.162Z,101498.41
2023-03-16T02:41:53.020Z,101498.66
2023-03-16T02:44:24.506Z,101499.25
2023-03-16T02:46:53.310Z,101508.56
2023-03-16T02:49:27.655Z,101510.09
2023-03-16T02:51:54.099Z,101509.84
2023-03-16T02:54:20.533Z,101517.34
2023-03-16T02:56:47.034Z,101522.19
2023-03-16T02:59:13.538Z,101512.59
2023-03-16T03:01:40.008Z,101515.63
2023-03-16T03:04:06.879Z,101517.91
2023-03-16T03:06:33.709Z,101510.00
2023-03-16T03:09:01.970Z,101511.53
2023-03-16T03:11:28.797Z,101512.13
2023-03-16T03:13:56.036Z,101514.53
2023-03-16T03:16:22.478Z,101509.16
2023-03-16T03:18:49.058Z,101519.25
2023-03-16T03:21:16.539Z,101527.53
2023-03-16T03:23:46.435Z,101517.78
2023-03-16T03:26:15.190Z,101520.06
2023-03-16T03:28:42.288Z,101519.28
2023-03-16T03:31:20.747Z,101515.22
2023-03-16T03:33:47.236Z,101516.75
2023-03-16T03:36:14.166Z,101508.31
2023-03-16T03:38:40.924Z,101508.47
2023-03-16T03:41:07.895Z,101508.47
2023-03-16T03:43:34.750Z,101504.13
2023-03-16T03:46:02.605Z,101505.00
2023-03-16T03:48:29.273Z,101510.13
2023-03-16T03:50:55.691Z,101513.28
2023-03-16T03:53:22.080Z,101518.00
2023-03-16T03:55:49.858Z,101512.91
2023-03-16T03:58:16.390Z,101520.41
2023-03-16T04:00:42.817Z,101516.22
2023-03-16T04:03:09.359Z,101512.63
2023-03-16T04:05:35.870Z,101512.50
2023-03-16T04:08:02.321Z,101509.78
2023-03-16T04:10:30.327Z,101515.50
2023-03-16T04:12:57.534Z,101516.13
2023-03-16T04:15:24.256Z,101513.31
2023-03-16T04:17:52.563Z,101509.72
2023-03-16T04:20:22.686Z,101495.63
2023-03-16T04:22:49.193Z,101512.72
2023-03-16T04:25:17.556Z,101513.22
2023-03-16T04:27:44.024Z,101524.03
2023-03-16T04:30:12.840Z,101515.50
2023-03-16T04:32:39.896Z,101512.81
2023-03-16T04:35:06.645Z,101511.91
2023-03-16T04:37:34.462Z,101523.63
2023-03-16T04:40:00.993Z,101514.91
2023-03-16T04:42:27.533Z,101514.91
2023-03-16T04:44:53.959Z,101523.31
2023-03-16T04:47:20.405Z,101528.41
2023-03-16T04:49:46.870Z,101524.84
2023-03-16T04:52:13.276Z,101529.94
2023-03-16T04:54:39.753Z,101528.00
2023-03-16T04:57:06.182Z,101525.19
2023-03-16T04:59:32.617Z,101531.03
2023-03-16T05:01:59.066Z,101529.13
2023-03-16T05:04:25.526Z,101529.13
2023-03-16T05:06:51.972Z,101523.13
2023-03-16T05:09:18.396Z,101530.59
2023-03-16T05:11:44.873Z,101530.59
2023-03-16T05:14:11.289Z,101530.59
2023-03-16T05:16:37.698Z,101530.59
2023-03-16T05:19:04.918Z,101532.25
2023-03-16T05:21:32.061Z,101535.69
2023-03-16T05:23:58.546Z,101533.16
2023-03-16T05:26:27.754Z,101528.81
2023-03-16T05:28:54.236Z,101543.34
2023-03-16T05:31:20.681Z,101537.47
2023-03-16T05:33:48.165Z,101534.03
2023-03-16T05:36:14.632Z,101542.59
2023-03-16T05:38:42.475Z,101535.69
2023-03-16T05:41:09.124Z,101536.75
2023-03-16T05:43:35.898Z,101534.34
2023-03-16T05:46:02.431Z,101537.19
2023-03-16T05:48:28.843Z,101535.03
2023-03-16T05:50:55.341Z,101533.53
2023-03-16T05:53:28.556Z,101535.63
2023-03-16T05:55:55.059Z,101537.56
2023-03-16T05:58:21.484Z,101537.97
2023-03-16T06:00:47.881Z,101540.03
2023-03-16T06:03:14.311Z,101536.25
2023-03-16T06:05:41.645Z,101540.13
2023-03-16T06:08:09.151Z,101536.34
2023-03-16T06:10:36.231Z,101535.09
2023-03-16T06:13:02.736Z,101539.84
2023-03-16T06:15:30.590Z,101543.09
2023-03-16T06:17:57.050Z,101540.31
2023-03-16T06:20:23.512Z,101540.13
2023-03-16T06:22:50.034Z,101542.47
2023-03-16T06:25:16.835Z,101548.91
2023-03-16T06:27:43.453Z,101544.31
2023-03-16T06:30:11.977Z,101547.69
2023-03-16T06:32:38.968Z,101542.53
2023-03-16T06:35:05.721Z,101546.22
2023-03-16T06:37:32.370Z,101536.28
2023-03-16T06:39:59.323Z,101535.00
2023-03-16T06:42:25.741Z,101532.25
2023-03-16T06:44:52.781Z,101540.31
2023-03-16T06:47:20.065Z,101534.47
2023-03-16T06:49:46.977Z,101534.38
2023-03-16T06:52:16.509Z,101534.13
2023-03-16T06:54:42.980Z,101536.72
2023-03-16T06:57:09.472Z,101536.75
2023-03-16T06:59:36.060Z,101534.81
2023-03-16T07:02:02.458Z,101535.63
2023-03-16T07:04:28.945Z,101526.31
2023-03-16T07:06:55.365Z,101530.38
2023-03-16T07:09:22.026Z,101536.41
2023-03-16T07:11:48.518Z,101540.25
2023-03-16T07:14:14.991Z,101545.34
2023-03-16T07:16:41.445Z,101552.03
2023-03-16T07:19:07.877Z,101555.47
2023-03-16T07:21:39.279Z,101556.97
2023-03-16T07:24:07.081Z,101562.09
2023-03-16T07:26:33.674Z,101561.97
2023-03-16T07:29:00.244Z,101567.94
2023-03-16T07:31:26.936Z,101573.03
2023-03-16T07:33:53.397Z,101572.00
2023-03-16T07:36:20.549Z,101566.09
2023-03-16T07:38:47.004Z,101569.25
2023-03-16T07:41:14.058Z,101573.78
2023-03-16T07:43:40.485Z,101583.00
2023-03-16T07:46:06.949Z,101577.69
2023-03-16T07:48:33.408Z,101579.97
2023-03-16T07:50:59.831Z,101581.72
2023-03-16T07:53:26.242Z,101576.25
2023-03-16T07:55:52.954Z,101578.66
2023-03-16T07:58:19.370Z,101580.78
2023-03-16T08:00:45.803Z,101585.97
2023-03-16T08:03:12.256Z,101589.38
2023-03-16T08:05:38.757Z,101578.88
2023-03-16T08:08:05.350Z,101591.44
2023-03-16T08:10:32.360Z,101588.91
2023-03-16T08:12:59.070Z,101590.50
2023-03-16T08:15:25.551Z,101585.91
2023-03-16T08:17:52.704Z,101577.22
2023-03-16T08:20:19.303Z,101586.53
2023-03-16T08:22:46.582Z,101582.25
2023-03-16T08:25:14.767Z,101588.28
2023-03-16T08:27:42.685Z,101580.69
2023-03-16T08:30:11.544Z,101589.41
2023-03-16T08:32:41.897Z,101593.00
2023-03-16T08:35:10.290Z,101590.41
2023-03-16T08:37:37.062Z,101593.56
2023-03-16T08:40:06.419Z,101598.94
2023-03-16T08:42:32.849Z,101593.09
2023-03-16T08:45:00.997Z,101599.47
2023-03-16T08:47:27.462Z,101603.66
2023-03-16T08:49:53.881Z,101598.19
2023-03-16T08:52:20.884Z,101598.59
2023-03-16T08:55:01.903Z,101602.41
2023-03-16T08:57:29.181Z,101597.75
2023-03-16T08:59:55.832Z,101599.09
2023-03-16T09:02:22.233Z,101599.50
2023-03-16T09:04:49.895Z,101601.94
2023-03-16T09:07:16.434Z,101598.56
2023-03-16T09:09:43.972Z,101587.69
2023-03-16T09:12:10.961Z,101576.41
2023-03-16T09:14:38.495Z,101579.53
2023-03-16T09:17:07.642Z,101579.91
2023-03-16T09:19:50.007Z,101575.66
2023-03-16T09:22:17.352Z,101578.66
2023-03-16T09:24:43.989Z,101586.50
2023-03-16T09:27:10.754Z,101589.66
2023-03-16T09:29:37.247Z,101585.63
2023-03-16T09:32:05.385Z,101590.97
2023-03-16T09:34:33.301Z,101592.16
2023-03-16T09:37:00.454Z,101601.13
2023-03-16T09:39:27.350Z,101591.28
2023-03-16T09:41:54.933Z,101595.19
2023-03-16T09:44:49.542Z,101592.59
2023-03-16T09:47:17.039Z,101591.91
2023-03-16T09:49:47.593Z,101594.19
2023-03-16T09:52:27.287Z,101587.34
2023-03-16T09:54:58.469Z,101593.28
2023-03-16T09:57:31.149Z,101586.47
2023-03-16T10:00:01.201Z,101587.44
2023-03-16T10:02:49.613Z,101587.53
2023-03-16T10:05:20.577Z,101583.66
2023-03-16T10:08:08.909Z,101593.50
2023-03-16T10:11:00.618Z,101581.66
2023-03-16T10:13:35.100Z,101576.78
2023-03-16T10:16:05.405Z,101578.38
2023-03-16T10:18:37.674Z,101572.75
2023-03-16T10:21:05.249Z,101569.53
2023-03-16T10:23:34.355Z,101567.25
2023-03-16T10:26:05.461Z,101569.72
2023-03-16T10:28:34.700Z,101567.75
2023-03-16T10:31:01.684Z,101562.88
2023-03-16T10:33:31.398Z,101564.97
2023-03-16T10:35:57.718Z,101553.22
2023-03-16T10:38:39.313Z,101546.84
2023-03-16T10:41:18.046Z,101541.88
2023-03-16T10:43:45.546Z,101549.00
2023-03-16T10:46:15.381Z,101545.63
2023-03-16T10:48:42.512Z,101537.00
2023-03-16T10:51:13.524Z,101538.19
2023-03-16T10:53:42.670Z,101539.19
2023-03-16T10:56:12.094Z,101538.94
2023-03-16T10:58:41.983Z,101540.81
2023-03-16T11:01:28.932Z,101532.47
2023-03-16T11:03:57.110Z,101525.69
2023-03-16T11:06:30.744Z,101532.75
2023-03-16T11:09:11.883Z,101530.72
2023-03-16T11:11:38.552Z,101530.72
2023-03-16T11:14:13.753Z,101531.06
2023-03-16T11:17:09.349Z,101530.81
2023-03-16T11:19:38.712Z,101535.81
2023-03-16T11:22:17.422Z,101537.78
2023-03-16T11:25:02.816Z,101530.66
2023-03-16T11:27:57.660Z,101529.03
2023-03-16T11:30:29.127Z,101529.94
2023-03-16T11:32:55.834Z,101522.19
2023-03-16T11:35:57.933Z,101522.63
2023-03-16T11:38:36.188Z,101509.41
2023-03-16T11:41:11.584Z,101507.28
2023-03-16T11:43:49.646Z,101505.00
2023-03-16T11:46:28.518Z,101489.84
2023-03-16T11:49:21.034Z,101485.66
2023-03-16T11:52:03.496Z,101484.03
2023-03-16T11:54:43.645Z,101473.16
2023-03-16T11:57:37.693Z,101467.25
2023-03-16T12:00:22.733Z,101463.19
2023-03-16T12:03:08.719Z,101457.06
2023-03-16T12:05:48.656Z,101452.53
2023-03-16T12:08:24.832Z,101450.09
2023-03-16T12:11:02.281Z,101442.41
2023-03-16T12:13:57.997Z,101440.06
2023-03-16T12:16:49.647Z,101441.16
2023-03-16T12:19:22.818Z,101437.91
2023-03-16T12:22:02.972Z,101434.59
2023-03-16T12:24:32.144Z,101442.53
2023-03-16T12:26:59.687Z,101433.31
2023-03-16T12:30:04.671Z,101430.88
2023-03-16T12:32:49.396Z,101426.53
2023-03-16T12:35:28.308Z,101421.34
2023-03-16T12:38:13.680Z,101413.88
2023-03-16T12:40:55.166Z,101418.44
2023-03-16T12:43:35.809Z,101421.72
2023-03-16T12:46:14.356Z,101409.94
2023-03-16T12:48:47.787Z,101404.91
2023-03-16T12:51:14.257Z,101401.44
2023-03-16T12:53:54.762Z,101401.44
2023-03-16T12:56:32.648Z,101390.50
2023-03-16T12:59:01.524Z,101378.44
2023-03-16T13:01:30.299Z,101391.72
2023-03-16T13:04:03.279Z,101404.09
2023-03-16T13:06:36.457Z,101404.19
2023-03-16T13:09:04.799Z,101391.16
2023-03-16T13:11:49.956Z,101403.56
2023-03-16T13:14:31.492Z,101397.56
2023-03-16T13:17:22.365Z,101391.78
2023-03-16T13:20:30.781Z,101399.56
2023-03-16T13:23:17.101Z,101397.94
2023-03-16T13:25:46.248Z,101401.34
2023-03-16T13:28:14.524Z,101402.22
2023-03-16T13:30:49.027Z,101395.28
2023-03-16T13:33:22.357Z,101393.63
2023-03-16T13:35:51.073Z,101387.41
2023-03-16T13:38:18.835Z,101383.13
2023-03-16T13:40:47.971Z,101378.41
2023-03-16T13:43:17.086Z,101373.31
2023-03-16T13:45:43.789Z,101370.72
2023-03-16T13:48:14.970Z,101361.25
2023-03-16T13:50:42.646Z,101348.38
2023-03-16T13:53:29.391Z,101345.09
2023-03-16T13:55:57.132Z,101347.75
2023-03-16T13:58:26.542Z,101349.72
2023-03-16T14:00:58.499Z,101342.75
2023-03-16T14:03:38.034Z,101342.75
2023-03-16T14:06:05.884Z,101340.25
2023-03-16T14:08:33.795Z,101337.56
2023-03-16T14:11:01.665Z,101329.47
2023-03-16T14:13:28.091Z,101330.38
2023-03-16T14:16:13.741Z,101318.31
2023-03-16T14:18:42.633Z,101320.91
2023-03-16T14:21:12.692Z,101302.47
2023-03-16T14:23:45.064Z,101302.69
2023-03-16T14:26:16.363Z,101292.38
2023-03-16T14:28:58.388Z,101282.34
2023-03-16T14:31:35.966Z,101270.47
2023-03-16T14:34:25.328Z,101273.22
2023-03-16T14:36:51.757Z,101277.88
2023-03-16T14:39:20.801Z,101278.78
2023-03-16T14:41:51.403Z,101273.53
2023-03-16T14:44:23.508Z,101275.50
2023-03-16T14:46:50.634Z,101268.53
2023-03-16T14:49:35.563Z,101272.84
2023-03-16T14:52:08.049Z,101261.38
2023-03-16T14:54:34.464Z,101272.56
2023-03-16T14:57:03.950Z,101273.38
2023-03-16T14:59:30.545Z,101269.81
2023-03-16T15:01:58.034Z,101276.75
2023-03-16T15:04:33.315Z,101269.59
2023-03-16T15:07:00.671Z,101278.38
2023-03-16T15:09:35.912Z,101269.53
2023-03-16T15:12:02.409Z,101264.47
2023-03-16T15:14:47.527Z,101251.53
2023-03-16T15:17:15.166Z,101263.38
2023-03-16T15:19:41.819Z,101263.53
2023-03-16T15:22:11.265Z,101260.78
2023-03-16T15:24:37.721Z,101249.47
2023-03-16T15:27:04.257Z,101245.88
2023-03-16T15:29:30.690Z,101252.00
2023-03-16T15:31:57.120Z,101250.50
2023-03-16T15:34:23.600Z,101240.16
2023-03-16T15:36:50.066Z,101240.22
2023-03-16T15:39:24.857Z,101226.19
2023-03-16T15:41:51.815Z,101237.38
2023-03-16T15:44:18.244Z,101229.19
2023-03-16T15:46:44.769Z,101229.19
2023-03-16T15:49:11.259Z,101222.06
2023-03-16T15:51:37.769Z,101226.22
2023-03-16T15:54:05.879Z,101224.44
2023-03-16T15:56:41.194Z,101212.19
2023-03-16T15:59:17.093Z,101208.66
2023-03-16T16:01:45.477Z,101212.88
2023-03-16T16:04:15.434Z,101205.66
2023-03-16T16:06:42.138Z,101200.44
2023-03-16T16:09:08.596Z,101190.41
2023-03-16T16:11:35.018Z,101189.84
2023-03-16T16:14:01.549Z,101193.97
2023-03-16T16:16:29.225Z,101197.16
2023-03-16T16:18:56.732Z,101194.56
2023-03-16T16:21:26.656Z,101189.19
2023-03-16T16:23:53.177Z,101179.84
2023-03-16T16:26:48.206Z,101178.97
2023-03-16T16:29:19.684Z,101178.56
2023-03-16T16:31:46.634Z,101177.63
2023-03-16T16:34:14.966Z,101174.06
2023-03-16T16:36:41.499Z,101170.59
2023-03-16T16:39:07.938Z,101179.31
2023-03-16T16:41:35.977Z,101169.78
2023-03-16T16:44:08.197Z,101165.50
2023-03-16T16:46:42.433Z,101171.47
2023-03-16T16:49:15.249Z,101167.84
2023-03-16T16:51:42.571Z,101167.72
2023-03-16T16:54:17.581Z,101173.69
2023-03-16T16:56:44.296Z,101180.31
2023-03-16T16:59:17.544Z,101179.28
2023-03-16T17:01:44.781Z,101174.94
2023-03-16T17:04:17.365Z,101170.44
2023-03-16T17:06:44.306Z,101165.00
2023-03-16T17:09:12.279Z,101166.47
2023-03-16T17:11:38.748Z,101163.75
2023-03-16T17:14:07.596Z,101168.72
2023-03-16T17:16:36.632Z,101159.84
2023-03-16T17:19:03.847Z,101153.72
2023-03-16T17:21:31.548Z,101160.53
2023-03-16T17:23:58.370Z,101158.56
2023-03-16T17:26:30.502Z,101145.56
2023-03-16T17:29:02.576Z,101134.91
2023-03-16T17:31:35.026Z,101137.44
2023-03-16T17:34:09.070Z,101142.34
2023-03-16T17:36:35.500Z,101146.63
2023-03-16T17:39:03.153Z,101141.47
2023-03-16T17:41:32.945Z,101124.03
2023-03-16T17:44:02.046Z,101128.88
2023-03-16T17:46:30.895Z,101130.59
2023-03-16T17:48:57.399Z,101136.47
2023-03-16T17:51:25.912Z,101134.06
2023-03-16T17:53:53.788Z,101137.34
2023-03-16T17:56:22.656Z,101140.03
2023-03-16T17:58:53.441Z,101133.97
2023-03-16T18:01:24.696Z,101129.69
2023-03-16T18:03:51.336Z,101129.50
2023-03-16T18:06:23.870Z,101132.91
2023-03-16T18:08:50.426Z,101131.88
2023-03-16T18:11:37.386Z,101130.09
2023-03-16T18:14:06.465Z,101130.03
2023-03-16T18:16:33.253Z,101124.69
2023-03-16T18:19:05.789Z,101120.16
2023-03-16T18:21:33.435Z,101124.34
2023-03-16T18:23:59.861Z,101127.75
2023-03-16T18:26:27.517Z,101131.06
2023-03-16T18:28:54.145Z,101127.44
2023-03-16T18:31:23.632Z,101122.97
2023-03-16T18:33:52.608Z,101124.66
2023-03-16T18:36:22.144Z,101135.00
2023-03-16T18:38:50.460Z,101137.59
2023-03-16T18:41:29.178Z,101141.78
2023-03-16T18:43:58.079Z,101135.59
2023-03-16T18:46:30.546Z,101134.69
2023-03-16T18:49:02.082Z,101133.72
2023-03-16T18:51:29.596Z,101129.22
2023-03-16T18:53:56.061Z,101127.91
2023-03-16T18:56:25.418Z,101124.34
2023-03-16T18:58:53.164Z,101125.97
2023-03-16T19:01:26.466Z,101135.31
2023-03-16T19:03:53.568Z,101136.75
2023-03-16T19:06:31.500Z,101146.94
2023-03-16T19:09:14.765Z,101149.34
2023-03-16T19:11:43.461Z,101153.63
2023-03-16T19:14:15.490Z,101150.66
2023-03-16T19:16:41.926Z,101131.88
2023-03-16T19:19:08.657Z,101123.88
2023-03-16T19:21:35.132Z,101127.25
2023-03-16T19:24:04.075Z,101121.94
2023-03-16T19:26:32.602Z,101121.66
2023-03-16T19:28:59.113Z,101126.66
2023-03-16T19:31:27.473Z,101118.84
2023-03-16T19:33:55.001Z,101113.59
2023-03-16T19:36:24.078Z,101109.22
2023-03-16T19:38:51.041Z,101114.41
2023-03-16T19:41:27.150Z,101119.41
2023-03-16T19:43:56.397Z,101108.88
2023-03-16T19:46:23.916Z,101102.75
2023-03-16T19:48:50.921Z,101100.97
2023-03-16T19:51:18.036Z,101091.44
2023-03-16T19:53:44.570Z,101089.75
2023-03-16T19:56:14.298Z,101095.72
2023-03-16T19:58:42.604Z,101098.06
2023-03-16T20:01:24.524Z,101096.22
2023-03-16T20:03:51.585Z,101097.53
2023-03-16T20:06:20.485Z,101106.09
2023-03-16T20:08:47.711Z,101107.84
2023-03-16T20:11:17.642Z,101091.31
2023-03-16T20:13:45.908Z,101090.53
2023-03-16T20:16:24.798Z,101088.84
2023-03-16T20:18:54.922Z,101084.09
2023-03-16T20:21:21.993Z,101083.88
2023-03-16T20:23:48.601Z,101081.03
2023-03-16T20:26:32.111Z,101070.34
2023-03-16T20:29:00.460Z,101076.94
2023-03-16T20:31:31.273Z,101082.91
2023-03-16T20:33:58.390Z,101081.75
2023-03-16T20:36:25.793Z,101072.16
2023-03-16T20:38:52.201Z,101073.59
2023-03-16T20:41:32.698Z,101072.53
2023-03-16T20:44:00.316Z,101062.81
2023-03-16T20:46:29.874Z,101065.31
2023-03-16T20:48:57.049Z,101058.22
2023-03-16T20:51:23.510Z,101057.31
2023-03-16T20:53:50.241Z,101048.47
2023-03-16T20:56:19.014Z,101043.09
2023-03-16T20:58:47.797Z,101042.94
2023-03-16T21:01:18.810Z,101045.34
2023-03-16T21:03:50.180Z,101032.28
2023-03-16T21:06:29.939Z,101025.94
2023-03-16T21:08:58.210Z,101010.56
2023-03-16T21:11:32.432Z,101007.81
2023-03-16T21:13:58.871Z,101015.47
2023-03-16T21:16:25.405Z,101012.09
2023-03-16T21:18:51.848Z,101005.00
2023-03-16T21:21:19.540Z,101005.72
2023-03-16T21:23:46.226Z,101002.03
2023-03-16T21:26:21.220Z,100998.78
2023-03-16T21:28:54.948Z,100998.66
2023-03-16T21:31:21.516Z,100983.91
2023-03-16T21:33:49.514Z,100993.34
2023-03-16T21:36:18.188Z,100990.75
2023-03-16T21:38:45.857Z,100987.31
2023-03-16T21:41:12.325Z,100988.09
2023-03-16T21:43:39.453Z,100983.75
2023-03-16T21:46:19.052Z,100984.56
2023-03-16T21:48:49.531Z,100991.84
2023-03-16T21:51:18.933Z,100991.84
2023-03-16T21:53:46.609Z,100993.34
2023-03-16T21:56:15.498Z,100989.88
2023-03-16T21:58:43.283Z,100988.00
2023-03-16T22:01:25.417Z,100992.84
2023-03-16T22:04:01.219Z,100994.50
2023-03-16T22:06:30.610Z,100990.06
2023-03-16T22:08:57.735Z,100982.94
2023-03-16T22:11:28.080Z,100966.69
2023-03-16T22:13:55.712Z,100965.72
2023-03-16T22:16:24.498Z,100966.53
2023-03-16T22:18:53.123Z,100962.00
2023-03-16T22:21:35.554Z,100962.97
2023-03-16T22:24:05.339Z,100962.00
2023-03-16T22:26:32.006Z,100961.19
2023-03-16T22:28:59.791Z,100958.41
2023-03-16T22:31:34.686Z,100956.66
2023-03-16T22:34:02.885Z,100946.34
2023-03-16T22:36:31.027Z,100952.31
2023-03-16T22:39:00.708Z,100951.41
2023-03-16T22:41:28.603Z,100948.13
2023-03-16T22:43:55.566Z,100943.69
2023-03-16T22:46:24.352Z,100944.56
2023-03-16T22:48:52.212Z,100932.59
2023-03-16T22:51:24.182Z,100929.94
2023-03-16T22:53:53.807Z,100930.72
2023-03-16T22:56:20.457Z,100925.41
2023-03-16T22:58:50.632Z,100918.66
2023-03-16T23:01:23.146Z,100917.50
2023-03-16T23:03:51.724Z,100911.63
2023-03-16T23:06:20.497Z,100908.19
2023-03-16T23:08:47.724Z,100901.25
2023-03-16T23:11:34.200Z,100894.41
2023-03-16T23:14:00.950Z,100887.59
2023-03-16T23:16:30.536Z,100881.47
2023-03-16T23:18:57.392Z,100878.88
2023-03-16T23:21:24.886Z,100868.66
2023-03-16T23:24:03.053Z,100872.94
2023-03-16T23:26:30.417Z,100873.75
2023-03-16T23:28:57.266Z,100882.25
2023-03-16T23:31:25.116Z,100878.00
2023-03-16T23:33:51.684Z,100878.88
2023-03-16T23:36:20.534Z,100877.13
2023-03-16T23:38:48.725Z,100876.41
2023-03-16T23:41:17.041Z,100877.91
2023-03-16T23:43:45.698Z,100882.25
2023-03-16T23:46:13.587Z,100871.97
2023-03-16T23:48:41.892Z,100859.97
2023-03-16T23:51:16.148Z,100858.28
2023-03-16T23:53:42.627Z,100858.38
2023-03-16T23:56:09.977Z,100847.81
2023-03-16T23:58:36.710Z,100837.53
